Time;durP1;ratioP1;P1;durP2;ratioP2;P2;SDS_P1;SDS_P2;PMS_P1;PMS_P2;Temp;Humidity;BMP_temperature;BMP_pressure;BME280_temperature;BME280_humidity;BME280_pressure;Samples;Min_cycle;Max_cycle;Signal;HPM_P1;HPM_P2
2022/06/01 00:00:54;;;;;;;8.40;6.03;;;;;;;20.78;72.83;99467.97;4988881;28;20442;-63
2022/06/01 00:03:22;;;;;;;9.17;6.03;;;;;;;20.79;72.79;99470.56;4991203;28;20198;-63
2022/06/01 00:05:53;;;;;;;7.87;6.07;;;;;;;20.78;73.14;99475.81;4991427;28;20202;-63
2022/06/01 00:08:20;;;;;;;7.17;5.87;;;;;;;20.73;73.16;99473.34;4991162;28;20226;-56
2022/06/01 00:10:47;;;;;;;9.13;6.13;;;;;;;20.77;72.87;99463.66;4991321;28;20194;-56
2022/06/01 00:13:14;;;;;;;7.80;5.93;;;;;;;20.75;72.71;99460.22;4991211;28;20190;-53
2022/06/01 00:15:41;;;;;;;7.00;5.97;;;;;;;20.77;72.26;99463.66;4990970;28;20202;-53
2022/06/01 00:18:08;;;;;;;8.77;6.00;;;;;;;20.76;71.42;99467.16;4990268;28;20447;-56
2022/06/01 00:20:36;;;;;;;6.37;5.70;;;;;;;20.77;70.57;99464.50;4988321;28;20605;-56
2022/06/01 00:23:06;;;;;;;5.90;5.37;;;;;;;20.55;70.13;99445.06;4990995;28;20193;-56
2022/06/01 00:25:33;;;;;;;5.67;5.17;;;;;;;20.67;70.01;99472.63;4991221;28;20197;-53
2022/06/01 00:28:00;;;;;;;6.53;5.80;;;;;;;20.63;69.94;99465.78;4990744;28;20190;-54
2022/06/01 00:30:27;;;;;;;6.37;5.67;;;;;;;20.59;70.51;99462.38;4991208;28;20194;-55
2022/06/01 00:32:54;;;;;;;7.97;5.17;;;;;;;20.59;69.23;99465.84;4988306;28;20274;-55
2022/06/01 00:35:23;;;;;;;5.93;5.37;;;;;;;20.64;68.65;99462.25;4990825;28;20252;-63
2022/06/01 00:37:50;;;;;;;6.03;5.00;;;;;;;20.68;67.59;99464.75;4990738;28;20747;-63
2022/06/01 00:40:21;;;;;;;5.20;4.53;;;;;;;20.58;66.61;99442.38;4990929;28;20191;-62
2022/06/01 00:42:51;;;;;;;4.87;4.47;;;;;;;20.69;66.21;99465.59;4990333;28;20244;-55
2022/06/01 00:45:21;;;;;;;7.63;4.67;;;;;;;20.61;66.11;99447.53;4991165;28;20224;-55
2022/06/01 00:47:48;;;;;;;5.60;4.47;;;;;;;20.78;66.20;99458.41;4991465;28;20253;-55
2022/06/01 00:50:20;;;;;;;6.17;5.07;;;;;;;20.75;66.21;99448.03;4990923;28;20194;-55
2022/06/01 00:52:51;;;;;;;5.87;4.53;;;;;;;20.77;66.18;99455.81;4989307;28;20554;-55
2022/06/01 00:55:24;;;;;;;6.73;4.80;;;;;;;20.77;66.28;99458.41;4988485;28;20202;-55
2022/06/01 00:57:56;;;;;;;6.57;4.90;;;;;;;20.78;66.65;99454.94;4990793;28;20212;-55
2022/06/01 01:00:27;;;;;;;5.50;4.63;;;;;;;20.78;66.57;99461.00;4989752;28;20353;-55
2022/06/01 01:02:56;;;;;;;5.30;4.80;;;;;;;20.67;67.10;99457.81;4987652;28;20241;-55
2022/06/01 01:05:25;;;;;;;6.13;5.10;;;;;;;20.67;67.09;99459.56;4990460;28;20182;-56
2022/06/01 01:07:53;;;;;;;6.50;4.90;;;;;;;20.67;66.84;99447.38;4990749;28;20186;-55
2022/06/01 01:10:23;;;;;;;8.83;4.83;;;;;;;20.69;66.69;99448.19;4990519;28;20191;-55
2022/06/01 01:13:01;;;;;;;9.50;5.13;;;;;;;20.69;66.76;99457.75;4989962;28;20186;-55
2022/06/01 01:15:31;;;;;;;7.07;5.00;;;;;;;20.64;66.98;99452.66;4990306;28;20204;-55
2022/06/01 01:17:59;;;;;;;6.30;4.23;;;;;;;20.57;67.16;99448.50;4987889;28;20194;-55
2022/06/01 01:20:27;;;;;;;5.47;4.60;;;;;;;20.58;67.09;99448.44;4989865;28;20202;-55
2022/06/01 01:23:02;;;;;;;6.27;4.20;;;;;;;20.58;67.14;99445.84;4987465;28;20527;-55
2022/06/01 01:25:34;;;;;;;5.07;4.67;;;;;;;20.56;67.35;99445.03;4989164;28;21044;-55
2022/06/01 01:28:05;;;;;;;5.60;5.10;;;;;;;20.56;67.29;99450.25;4989972;28;20724;-55
2022/06/01 01:30:45;;;;;;;6.23;4.23;;;;;;;20.55;67.81;99447.66;4989819;28;20265;-55
2022/06/01 01:33:15;;;;;;;7.20;4.57;;;;;;;20.57;67.49;99454.56;4989863;28;20205;-55
2022/06/01 01:35:43;;;;;;;5.17;4.70;;;;;;;20.60;67.61;99451.03;4989052;28;20206;-55
2022/06/01 01:38:11;;;;;;;4.60;4.20;;;;;;;20.56;67.82;99446.78;4989565;28;20190;-55
2022/06/01 01:40:39;;;;;;;6.03;4.23;;;;;;;20.52;67.93;99447.72;4989715;28;20190;-55
2022/06/01 01:43:08;;;;;;;6.50;4.95;;;;;;;20.50;68.09;99446.94;4988802;28;20464;-55
2022/06/01 01:45:37;;;;;;;9.97;4.53;;;;;;;20.46;68.41;99446.13;4992841;28;20186;-55
2022/06/01 01:48:04;;;;;;;6.90;5.07;;;;;;;20.44;68.49;99439.25;4994003;28;20280;-55
2022/06/01 01:50:31;;;;;;;5.53;4.63;;;;;;;20.38;68.79;99431.59;4993941;28;20336;-55
2022/06/01 01:52:58;;;;;;;5.93;5.30;;;;;;;20.29;69.38;99434.41;4994115;28;20190;-55
2022/06/01 01:55:37;;;;;;;5.17;4.77;;;;;;;20.18;69.82;99439.84;4993868;28;20195;-55
2022/06/01 01:58:15;;;;;;;7.43;4.97;;;;;;;20.01;70.40;99424.59;4992709;28;20194;-55
2022/06/01 02:00:48;;;;;;;5.70;4.90;;;;;;;20.00;71.01;99445.47;4994271;28;20264;-55
2022/06/01 02:03:20;;;;;;;7.00;4.93;;;;;;;19.93;71.52;99433.47;4994292;28;20226;-55
2022/06/01 02:06:07;;;;;;;8.10;5.47;;;;;;;19.90;71.77;99433.53;4993670;28;20451;-55
2022/06/01 02:08:39;;;;;;;9.20;5.10;;;;;;;19.86;71.90;99435.34;4993903;28;20550;-55
2022/06/01 02:14:01;;;;;;;7.53;4.93;;;;;;;19.82;72.54;99433.72;4993928;28;20573;-55
2022/06/01 02:16:32;;;;;;;8.87;5.60;;;;;;;19.80;72.27;99432.91;4993991;28;20265;-55
2022/06/01 02:19:02;;;;;;;7.13;5.03;;;;;;;19.82;71.98;99436.31;4993613;28;20250;-62
2022/06/01 02:21:29;;;;;;;7.33;5.30;;;;;;;19.82;72.03;99435.47;4993503;28;20221;-62
2022/06/01 02:24:00;;;;;;;5.83;5.07;;;;;;;19.82;71.91;99435.47;4993898;28;20198;-62
2022/06/01 02:26:29;;;;;;;6.00;4.87;;;;;;;19.76;71.55;99438.19;4993723;28;20562;-62
2022/06/01 02:29:02;;;;;;;8.97;5.47;;;;;;;19.77;71.45;99438.19;4993839;28;20261;-62
2022/06/01 02:31:30;;;;;;;7.80;5.37;;;;;;;19.76;71.44;99446.00;4993603;28;20253;-62
2022/06/01 02:33:58;;;;;;;6.33;5.40;;;;;;;19.76;71.19;99448.63;4993833;28;20198;-61
2022/06/01 02:36:27;;;;;;;5.70;5.17;;;;;;;19.73;71.53;99448.69;4993707;28;20198;-62
2022/06/01 02:38:57;;;;;;;6.80;5.13;;;;;;;19.59;71.75;99414.22;4993415;28;20249;-62
2022/06/01 02:44:09;;;;;;;5.10;4.60;;;;;;;19.72;71.79;99447.00;4993572;28;20201;-61
2022/06/01 02:46:36;;;;;;;8.00;5.20;;;;;;;19.74;71.83;99443.44;4993412;28;20669;-61
2022/06/01 02:49:03;;;;;;;6.93;6.17;;;;;;;19.71;71.75;99443.53;4993561;28;20202;-61
2022/06/01 02:51:30;;;;;;;5.90;5.20;;;;;;;19.72;71.29;99447.00;4993237;28;20364;-61
2022/06/01 02:53:57;;;;;;;7.17;5.17;;;;;;;19.72;70.55;99447.81;4993380;28;20257;-61
2022/06/01 02:56:25;;;;;;;8.87;5.43;;;;;;;19.68;69.45;99447.94;4992820;28;20194;-61
2022/06/01 02:58:51;;;;;;;8.20;4.93;;;;;;;19.72;69.55;99450.44;4993456;28;20285;-61
2022/06/01 03:01:20;;;;;;;7.90;5.33;;;;;;;19.75;69.96;99446.94;4993325;28;20228;-61
2022/06/01 03:03:47;;;;;;;6.65;5.40;;;;;;;19.80;69.80;99455.50;4992758;28;20436;-61
2022/06/01 03:06:14;;;;;;;7.57;4.90;;;;;;;19.85;68.22;99461.47;4993012;28;20199;-61
2022/06/01 03:08:41;;;;;;;6.03;5.53;;;;;;;19.91;68.26;99453.53;4992808;28;20649;-61
2022/06/01 03:11:08;;;;;;;10.20;5.20;;;;;;;20.00;67.97;99468.94;4992976;28;20198;-61
2022/06/01 03:13:35;;;;;;;6.37;5.10;;;;;;;19.87;68.36;99442.28;4993147;28;20256;-61
2022/06/01 03:16:01;;;;;;;8.53;5.43;;;;;;;20.05;68.78;99467.13;4993017;28;20260;-61
2022/06/01 03:18:31;;;;;;;8.07;6.37;;;;;;;20.02;69.03;99456.75;4993115;28;20260;-61
2022/06/01 03:20:58;;;;;;;10.00;5.80;;;;;;;20.09;69.15;99460.06;4992708;28;20233;-61
2022/06/01 03:23:25;;;;;;;8.60;5.63;;;;;;;19.97;69.01;99437.72;4992701;28;20245;-61
2022/06/01 03:25:52;;;;;;;5.57;5.07;;;;;;;20.18;69.10;99468.53;4993141;28;20260;-62
2022/06/01 03:28:19;;;;;;;10.75;5.88;;;;;;;20.29;68.90;99463.09;4992453;28;20452;-62
2022/06/01 03:30:46;;;;;;;11.43;5.17;;;;;;;20.37;68.68;99454.22;4992544;28;20191;-62
2022/06/01 03:33:14;;;;;;;6.93;5.57;;;;;;;20.46;68.32;99466.19;4992310;28;20700;-62
2022/06/01 03:35:42;;;;;;;13.07;5.87;;;;;;;20.42;67.68;99456.69;4992324;28;20194;-61
2022/06/01 03:38:09;;;;;;;8.93;5.17;;;;;;;20.52;67.76;99469.47;4992226;28;20198;-61
2022/06/01 03:40:38;;;;;;;6.47;5.47;;;;;;;20.52;67.13;99474.69;4992478;28;20202;-62
2022/06/01 03:43:05;;;;;;;10.07;5.70;;;;;;;20.55;67.12;99474.63;4992276;28;20222;-62
2022/06/01 03:48:17;;;;;;;10.07;5.20;;;;;;;20.60;66.16;99470.16;4991909;28;20193;-62
2022/06/01 03:50:45;;;;;;;8.17;5.83;;;;;;;20.71;65.79;99474.28;4992586;28;20194;-62
2022/06/01 03:53:12;;;;;;;8.87;5.97;;;;;;;20.73;65.95;99468.09;4991946;28;20747;-61
2022/06/01 03:55:38;;;;;;;8.03;5.37;;;;;;;20.74;66.15;99464.59;4992027;28;20762;-61
2022/06/01 03:58:06;;;;;;;8.33;5.87;;;;;;;20.72;66.27;99463.78;4991999;28;20245;-61
2022/06/01 04:00:33;;;;;;;9.13;5.73;;;;;;;20.67;66.43;99470.00;4991927;28;20245;-62
2022/06/01 04:03:00;;;;;;;8.83;5.40;;;;;;;20.69;66.15;99466.47;4991634;28;20284;-61
2022/06/01 04:05:27;;;;;;;8.40;5.33;;;;;;;20.75;65.71;99463.69;4991741;28;20198;-62
2022/06/01 04:07:55;;;;;;;6.60;5.77;;;;;;;20.76;65.62;99459.34;4991071;28;20198;-62
2022/06/01 04:10:22;;;;;;;6.77;6.07;;;;;;;20.80;66.00;99461.81;4991252;28;20508;-62
2022/06/01 04:12:49;;;;;;;30.77;10.67;;;;;;;20.84;65.83;99471.31;4991521;28;20199;-62
2022/06/01 04:15:16;;;;;;;10.40;5.73;;;;;;;20.76;65.76;99475.00;4991578;28;20194;-62
2022/06/01 04:17:43;;;;;;;7.23;6.00;;;;;;;20.74;66.16;99469.81;4991520;28;20222;-62
2022/06/01 04:20:12;;;;;;;7.33;5.50;;;;;;;20.76;66.18;99478.47;4991343;28;20198;-61
2022/06/01 04:22:41;;;;;;;6.87;5.87;;;;;;;20.78;66.14;99475.81;4991195;28;20225;-62
2022/06/01 04:25:12;;;;;;;16.13;6.10;;;;;;;20.85;66.18;99475.63;4991558;28;20198;-62
2022/06/01 04:27:39;;;;;;;8.00;6.15;;;;;;;20.89;66.13;99471.19;4990886;28;20440;-62
2022/06/01 04:30:08;;;;;;;7.97;5.83;;;;;;;20.99;65.39;99470.03;4991450;28;20535;-61
2022/06/01 04:32:35;;;;;;;6.80;5.73;;;;;;;21.02;65.36;99465.59;4991679;28;20244;-63
2022/06/01 04:35:03;;;;;;;7.20;6.40;;;;;;;21.00;65.29;99462.16;4991273;28;20202;-62
2022/06/01 04:37:30;;;;;;;11.13;5.30;;;;;;;20.98;64.70;99463.97;4991094;28;20260;-61
2022/06/01 04:39:56;;;;;;;11.30;5.83;;;;;;;21.07;64.53;99466.34;4991254;28;20202;-61
2022/06/01 04:42:25;;;;;;;7.90;5.10;;;;;;;21.09;63.64;99466.34;4990468;28;20222;-61
2022/06/01 04:44:52;;;;;;;6.10;5.43;;;;;;;21.16;63.95;99471.34;4991598;28;20206;-61
2022/06/01 04:47:20;;;;;;;7.50;6.00;;;;;;;21.24;63.80;99478.97;4989028;28;20241;-62
2022/06/01 04:49:46;;;;;;;6.57;5.20;;;;;;;21.31;63.12;99477.91;4991038;28;20316;-62
2022/06/01 04:52:16;;;;;;;9.55;5.82;;;;;;;21.41;62.65;99487.22;4990470;28;21352;-63
2022/06/01 04:54:43;;;;;;;6.53;5.03;;;;;;;21.50;62.31;99488.72;4990909;28;20198;-63
2022/06/01 04:57:10;;;;;;;8.53;5.17;;;;;;;21.51;62.24;99496.50;4990719;28;20190;-63
2022/06/01 04:59:38;;;;;;;7.03;5.43;;;;;;;21.58;62.52;99494.59;4990996;28;20204;-63
2022/06/01 05:02:05;;;;;;;7.63;5.47;;;;;;;21.36;62.50;99436.81;4985028;28;20202;-63
2022/06/01 05:04:32;;;;;;;5.50;5.00;;;;;;;21.73;61.59;99494.13;4980185;28;20212;-61
2022/06/01 05:07:00;;;;;;;9.73;5.40;;;;;;;21.74;61.55;99496.72;4990261;28;20788;-62
2022/06/01 05:09:27;;;;;;;6.20;5.50;;;;;;;21.69;61.40;99498.63;4990657;28;20194;-62
2022/06/01 05:11:54;;;;;;;7.90;4.90;;;;;;;21.74;61.78;99494.09;4990378;28;20198;-61
2022/06/01 05:14:21;;;;;;;5.97;5.47;;;;;;;21.82;62.19;99500.88;4990431;28;20561;-62
2022/06/01 05:16:49;;;;;;;7.07;5.30;;;;;;;21.81;62.37;99501.78;4990827;28;20194;-63
2022/06/01 05:19:18;;;;;;;7.20;6.17;;;;;;;21.87;62.42;99497.25;4990386;28;20252;-62
2022/06/01 05:21:44;;;;;;;5.77;5.13;;;;;;;21.95;62.10;99497.88;4990092;28;20244;-62
2022/06/01 05:24:11;;;;;;;6.80;5.47;;;;;;;22.00;62.17;99508.22;4990294;28;20661;-62
2022/06/01 05:26:38;;;;;;;9.73;5.37;;;;;;;22.07;62.46;99508.00;4990682;28;20577;-63
2022/06/01 05:29:04;;;;;;;7.50;5.70;;;;;;;22.10;61.70;99504.41;4990807;28;20190;-63
2022/06/01 05:31:31;;;;;;;11.67;5.97;;;;;;;22.07;62.38;99496.66;4990231;28;20220;-63
2022/06/01 05:33:59;;;;;;;7.30;4.93;;;;;;;22.12;61.82;99495.63;4989567;28;20440;-62
2022/06/01 05:36:29;;;;;;;12.40;5.50;;;;;;;22.26;61.49;99497.81;4990322;28;20268;-62
2022/06/01 05:38:56;;;;;;;6.13;4.80;;;;;;;22.46;60.09;99510.28;4990552;28;20187;-64
2022/06/01 05:41:22;;;;;;;8.63;5.17;;;;;;;22.47;59.60;99499.75;4989746;28;20202;-63
2022/06/01 05:43:51;;;;;;;6.10;4.40;;;;;;;22.63;58.16;99506.25;4990312;28;20585;-62
2022/06/01 05:46:18;;;;;;;4.97;4.57;;;;;;;22.69;58.21;99503.41;4990297;28;20194;-62
2022/06/01 05:48:45;;;;;;;9.10;5.03;;;;;;;22.78;58.24;99495.25;4989488;28;20534;-64
2022/06/01 05:51:13;;;;;;;6.80;4.77;;;;;;;22.76;57.08;99494.47;4989984;28;20202;-63
2022/06/01 05:53:40;;;;;;;5.43;4.32;;;;;;;22.90;56.97;99494.88;4989262;28;20563;-63
2022/06/01 05:56:07;;;;;;;4.73;4.10;;;;;;;23.10;55.26;99501.19;4990057;28;20665;-63
2022/06/01 05:58:33;;;;;;;6.33;4.50;;;;;;;23.07;54.76;99504.78;4990157;28;20194;-63
2022/06/01 06:01:03;;;;;;;4.73;3.97;;;;;;;23.14;55.45;99508.91;4989655;28;20199;-64
2022/06/01 06:03:30;;;;;;;4.77;4.07;;;;;;;23.19;55.89;99506.09;4987540;28;20226;-62
2022/06/01 06:06:16;;;;;;;7.67;4.57;;;;;;;23.26;57.15;99511.09;4988046;28;20197;-62
2022/06/01 06:08:48;;;;;;;10.13;5.30;;;;;;;23.30;57.12;99502.19;4988325;28;20280;-63
2022/06/01 06:11:16;;;;;;;8.77;5.03;;;;;;;23.26;57.39;99505.00;4990016;28;20210;-62
2022/06/01 06:13:44;;;;;;;5.10;4.27;;;;;;;23.21;57.69;99507.75;4990059;28;20194;-63
2022/06/01 06:16:12;;;;;;;5.93;5.10;;;;;;;23.27;57.43;99510.16;4988985;28;20444;-64
2022/06/01 06:18:39;;;;;;;7.07;5.23;;;;;;;23.36;56.77;99511.63;4989023;28;20633;-64
2022/06/01 06:21:06;;;;;;;12.67;5.10;;;;;;;23.37;57.64;99510.72;4989943;28;20313;-64
2022/06/01 06:23:33;;;;;;;6.77;4.80;;;;;;;23.39;57.00;99504.53;4989804;28;20222;-64
2022/06/01 06:26:02;;;;;;;5.82;4.70;;;;;;;23.44;58.00;99507.84;4989245;28;20451;-63
2022/06/01 06:28:29;;;;;;;8.07;4.93;;;;;;;23.58;56.92;99503.88;4989510;28;20308;-63
2022/06/01 06:30:55;;;;;;;7.93;5.20;;;;;;;23.44;57.63;99465.03;4991796;28;20210;-62
2022/06/01 06:33:22;;;;;;;5.67;4.97;;;;;;;23.76;57.70;99505.84;4993858;28;20268;-62
2022/06/01 06:35:57;;;;;;;10.30;5.37;;;;;;;23.87;56.49;99508.91;4993777;28;20198;-62
2022/06/01 06:38:26;;;;;;;5.23;4.70;;;;;;;23.94;55.75;99495.50;4993346;28;20194;-61
2022/06/01 06:40:54;;;;;;;7.00;5.23;;;;;;;23.86;55.21;99497.56;4992392;28;20483;-62
2022/06/01 06:43:22;;;;;;;7.73;5.07;;;;;;;23.96;54.50;99498.91;4992942;28;20336;-61
2022/06/01 06:45:50;;;;;;;5.70;5.10;;;;;;;24.01;53.96;99496.97;4993365;28;20198;-62
2022/06/01 06:48:17;;;;;;;6.33;5.50;;;;;;;24.11;54.50;99501.91;4991320;28;20190;-62
2022/06/01 06:50:43;;;;;;;13.10;5.00;;;;;;;24.21;55.14;99504.13;4992503;28;20198;-62
2022/06/01 06:53:11;;;;;;;6.47;5.37;;;;;;;24.23;54.46;99502.28;4992459;28;20249;-63
2022/06/01 06:55:37;;;;;;;6.10;5.13;;;;;;;24.27;54.05;99495.13;4991734;28;20238;-62
2022/06/01 06:58:08;;;;;;;5.60;5.20;;;;;;;24.22;54.56;99495.31;4992992;28;20265;-63
2022/06/01 07:00:36;;;;;;;10.10;4.97;;;;;;;24.36;55.25;99489.53;4992521;28;20249;-63
2022/06/01 07:03:03;;;;;;;6.83;4.87;;;;;;;24.41;53.62;99500.72;4992710;28;20701;-63
2022/06/01 07:08:13;;;;;;;6.70;4.93;;;;;;;24.58;53.50;99482.50;4991801;28;20193;-62
2022/06/01 07:10:40;;;;;;;7.50;5.30;;;;;;;24.67;52.19;99483.91;4991980;28;20186;-62
2022/06/01 07:13:07;;;;;;;6.33;5.60;;;;;;;24.69;53.48;99484.69;4992234;28;20241;-63
2022/06/01 07:15:35;;;;;;;6.30;4.97;;;;;;;24.71;53.06;99491.59;4992121;28;20191;-62
2022/06/01 07:18:04;;;;;;;6.53;5.10;;;;;;;24.75;52.71;99493.16;4992634;28;20286;-62
2022/06/01 07:20:31;;;;;;;8.53;5.47;;;;;;;24.73;53.57;99488.88;4992118;28;20455;-63
2022/06/01 07:22:58;;;;;;;8.40;5.13;;;;;;;24.88;52.44;99488.28;4992639;28;20214;-63
2022/06/01 07:25:26;;;;;;;7.57;4.80;;;;;;;24.91;52.31;99482.91;4992408;28;20190;-63
2022/06/01 07:27:54;;;;;;;5.50;4.87;;;;;;;24.89;52.36;99468.94;4992643;28;20256;-63
2022/06/01 07:30:21;;;;;;;5.53;4.67;;;;;;;25.09;50.42;99477.72;4992382;28;20288;-62
2022/06/01 07:32:48;;;;;;;5.33;4.87;;;;;;;25.16;52.01;99479.16;4992487;28;20657;-63
2022/06/01 07:35:17;;;;;;;8.97;4.60;;;;;;;25.20;50.87;99485.13;4992215;28;20194;-62
2022/06/01 07:43:14;;;;;;;5.60;4.97;;;;;;;25.53;50.76;99469.66;4990758;28;20217;-63
2022/06/01 07:45:45;;;;;;;8.17;4.60;;;;;;;25.66;49.01;99470.81;4992141;28;20195;-63
2022/06/01 07:48:13;;;;;;;7.50;4.85;;;;;;;25.74;49.20;99479.22;4991129;28;20448;-63
2022/06/01 07:50:41;;;;;;;7.60;4.80;;;;;;;25.87;47.50;99469.84;4992148;28;20198;-63
2022/06/01 07:53:09;;;;;;;6.63;4.50;;;;;;;25.91;47.50;99473.19;4991899;28;20195;-63
2022/06/01 07:55:36;;;;;;;10.77;4.55;;;;;;;25.76;47.67;99469.50;4991832;28;20194;-64
2022/06/01 07:58:04;;;;;;;6.93;4.70;;;;;;;25.90;47.97;99466.22;4991672;28;20198;-64
2022/06/01 08:00:31;;;;;;;8.57;5.35;;;;;;;26.02;47.72;99470.91;4992037;28;20190;-63
2022/06/01 08:02:59;;;;;;;7.17;5.60;;;;;;;26.13;47.89;99463.34;4992108;28;20299;-62
2022/06/01 08:05:26;;;;;;;9.40;4.70;;;;;;;26.04;46.47;99440.09;4991880;28;20200;-63
2022/06/01 08:07:54;;;;;;;6.27;4.63;;;;;;;26.27;46.79;99464.44;4991289;28;20257;-63
2022/06/01 08:10:22;;;;;;;5.93;4.70;;;;;;;26.36;46.33;99465.78;4991435;28;20248;-62
2022/06/01 08:15:33;;;;;;;11.35;4.53;;;;;;;26.40;46.35;99471.75;4991541;28;20193;-64
2022/06/01 08:18:00;;;;;;;5.85;4.72;;;;;;;26.38;45.72;99459.50;4991545;28;20194;-62
2022/06/01 08:20:28;;;;;;;5.53;4.72;;;;;;;26.43;46.68;99455.78;4991075;28;20622;-61
2022/06/01 08:22:57;;;;;;;6.90;4.47;;;;;;;26.49;46.04;99463.38;4990993;28;20213;-64
2022/06/01 08:25:24;;;;;;;9.10;4.70;;;;;;;26.37;46.31;99422.66;4991040;28;20194;-56
2022/06/01 08:27:52;;;;;;;7.75;5.25;;;;;;;26.72;45.76;99465.75;4990883;28;20739;-56
2022/06/01 08:30:21;;;;;;;6.45;4.50;;;;;;;26.76;45.57;99467.28;4990672;28;20317;-54
2022/06/01 08:32:49;;;;;;;7.22;5.40;;;;;;;26.78;46.31;99454.94;4990901;28;20197;-55
2022/06/01 08:35:18;;;;;;;4.80;4.40;;;;;;;26.93;45.69;99455.00;4990843;28;20719;-55
2022/06/01 08:37:46;;;;;;;7.78;5.80;;;;;;;26.90;45.74;99456.94;4990334;28;20197;-55
2022/06/01 08:40:18;;;;;;;5.65;5.15;;;;;;;26.92;46.34;99462.97;4990184;28;20194;-55
2022/06/01 08:42:52;;;;;;;5.82;5.18;;;;;;;27.04;46.11;99461.50;4990321;28;20633;-55
2022/06/01 08:45:22;;;;;;;6.20;5.60;;;;;;;27.07;45.50;99462.22;4989956;28;20436;-55
2022/06/01 08:47:49;;;;;;;8.43;4.72;;;;;;;27.18;45.18;99457.25;4990395;28;20287;-55
2022/06/01 08:50:21;;;;;;;6.45;5.05;;;;;;;27.23;46.27;99463.13;4990572;28;20256;-55
2022/06/01 08:52:48;;;;;;;5.35;4.78;;;;;;;27.27;45.13;99458.53;4990270;28;20194;-55
2022/06/01 08:55:17;;;;;;;6.28;5.22;;;;;;;27.25;44.96;99463.06;4990706;28;20190;-54
2022/06/01 08:57:49;;;;;;;5.20;4.70;;;;;;;27.34;45.07;99452.84;4990330;28;20194;-55
2022/06/01 09:00:20;;;;;;;8.30;4.93;;;;;;;27.38;43.95;99459.69;4990465;28;20253;-55
2022/06/01 09:02:55;;;;;;;9.10;5.25;;;;;;;27.49;43.52;99453.88;4990246;28;20197;-55
2022/06/01 09:05:27;;;;;;;5.30;4.43;;;;;;;27.60;44.39;99454.16;4990740;28;20632;-55
2022/06/01 09:08:01;;;;;;;6.13;5.10;;;;;;;27.73;43.83;99449.06;4990485;28;20194;-55
2022/06/01 09:10:50;;;;;;;6.57;5.57;;;;;;;27.89;44.40;99445.50;4989869;28;20485;-55
2022/06/01 09:13:23;;;;;;;8.95;4.28;;;;;;;28.00;42.79;99447.53;4989863;28;20187;-55
2022/06/01 09:15:54;;;;;;;5.38;4.80;;;;;;;28.07;43.00;99444.50;4989897;28;20260;-55
2022/06/01 09:18:25;;;;;;;5.35;4.45;;;;;;;28.10;40.95;99438.22;4990191;28;20282;-55
2022/06/01 09:23:36;;;;;;;7.50;4.00;;;;;;;27.97;39.14;99440.63;4990225;28;20213;-55
2022/06/01 09:26:05;;;;;;;5.35;3.83;;;;;;;28.02;39.32;99441.25;4990383;28;20194;-56
2022/06/01 09:28:38;;;;;;;5.05;4.00;;;;;;;28.05;39.07;99416.44;4990165;28;20629;-62
2022/06/01 09:31:19;;;;;;;5.20;3.80;;;;;;;28.24;38.43;99432.97;4990459;28;20194;-62
2022/06/01 09:33:46;;;;;;;7.28;3.50;;;;;;;28.29;38.11;99430.94;4989852;28;20190;-64
2022/06/01 09:36:26;;;;;;;5.93;3.55;;;;;;;28.40;38.53;99432.97;4989883;28;20253;-64
2022/06/01 09:38:54;;;;;;;5.55;3.85;;;;;;;28.49;37.64;99429.78;4990175;28;20912;-64
2022/06/01 09:41:30;;;;;;;2.90;2.45;;;;;;;28.51;34.49;99428.75;4990156;28;20636;-64
2022/06/01 09:43:59;;;;;;;4.57;2.88;;;;;;;28.64;35.04;99439.50;4990239;28;20260;-64
2022/06/01 09:46:33;;;;;;;4.35;2.70;;;;;;;28.66;34.52;99421.75;4990167;28;20198;-64
2022/06/01 09:49:01;;;;;;;3.80;2.85;;;;;;;28.70;35.03;99423.28;4990134;28;20562;-63
2022/06/01 09:51:28;;;;;;;3.50;3.20;;;;;;;28.86;36.47;99421.44;4990490;28;20198;-63
2022/06/01 09:54:12;;;;;;;5.25;4.28;;;;;;;29.07;36.81;99428.06;4989328;28;21138;-63
2022/06/01 09:56:45;;;;;;;6.97;3.33;;;;;;;28.96;37.38;99427.88;4990108;28;20197;-63
2022/06/01 10:07:48;;;;;;;5.88;3.53;;;;;;;28.99;36.72;99410.97;4993604;28;20385;-63
2022/06/01 10:10:25;;;;;;;4.55;3.90;;;;;;;29.18;37.18;99406.25;4992647;28;20524;-63
2022/06/01 10:12:56;;;;;;;5.03;3.83;;;;;;;29.21;37.38;99395.47;4993396;28;20217;-63
2022/06/01 10:15:31;;;;;;;6.05;4.45;;;;;;;29.33;36.80;99392.13;4993080;28;20297;-62
2022/06/01 10:18:02;;;;;;;4.93;3.35;;;;;;;29.49;36.21;99394.66;4992945;28;20197;-63
2022/06/01 10:20:34;;;;;;;4.55;3.40;;;;;;;29.52;35.68;99392.69;4993045;28;20630;-61
2022/06/01 10:23:07;;;;;;;4.78;3.47;;;;;;;29.26;35.72;99396.06;4992943;28;20747;-63
2022/06/01 10:25:42;;;;;;;5.20;3.65;;;;;;;29.33;35.97;99397.41;4993334;28;20597;-63
2022/06/01 10:28:16;;;;;;;4.35;3.92;;;;;;;29.28;35.54;99394.22;4992603;28;20661;-62
2022/06/01 10:30:48;;;;;;;4.03;3.40;;;;;;;29.43;34.81;99397.69;4993237;28;20269;-62
2022/06/01 10:33:20;;;;;;;4.03;3.63;;;;;;;29.61;34.53;99388.59;4993003;28;20740;-62
2022/06/01 10:35:51;;;;;;;6.57;3.78;;;;;;;29.68;34.64;99390.75;4992978;28;20249;-63
2022/06/01 10:38:21;;;;;;;4.15;3.75;;;;;;;29.80;33.81;99383.88;4992212;28;20281;-63
2022/06/01 10:40:58;;;;;;;6.55;3.50;;;;;;;29.87;34.62;99400.19;4993097;28;20250;-62
2022/06/01 10:43:44;;;;;;;5.75;3.90;;;;;;;29.91;33.95;99388.47;4992414;28;20677;-62
2022/06/01 10:46:31;;;;;;;3.40;3.10;;;;;;;29.88;32.15;99384.22;4992906;28;20252;-63
2022/06/01 10:49:11;;;;;;;4.38;3.22;;;;;;;30.04;33.36;99379.63;4992832;28;20197;-62
2022/06/01 10:51:38;;;;;;;5.90;4.05;;;;;;;30.14;33.66;99378.06;4992238;28;20440;-64
2022/06/01 10:54:15;;;;;;;3.58;3.28;;;;;;;30.11;33.30;99388.00;4992944;28;20245;-63
2022/06/01 10:56:42;;;;;;;4.85;3.25;;;;;;;29.93;34.42;99384.78;4992779;28;20197;-56
2022/06/01 10:59:16;;;;;;;3.42;3.15;;;;;;;30.04;33.88;99382.28;4993082;28;20257;-54
2022/06/01 11:01:57;;;;;;;6.45;3.17;;;;;;;30.01;33.51;99355.13;4992776;28;20194;-55
2022/06/01 11:04:55;;;;;;;6.78;3.72;;;;;;;30.09;34.11;99387.25;4992834;28;20309;-56
2022/06/01 11:07:53;;;;;;;4.35;3.15;;;;;;;30.15;34.08;99376.25;4992708;28;20694;-55
2022/06/01 11:10:26;;;;;;;6.15;3.13;;;;;;;30.30;34.13;99373.44;4992625;28;20633;-55
2022/06/01 11:13:03;;;;;;;4.35;2.97;;;;;;;30.66;32.40;99364.00;4992678;28;20236;-55
2022/06/01 11:15:45;;;;;;;3.85;3.20;;;;;;;30.79;31.79;99365.72;4992541;28;20194;-55
2022/06/01 11:18:31;;;;;;;4.10;3.28;;;;;;;30.61;32.17;99371.44;4991563;28;20455;-55
2022/06/01 11:21:08;;;;;;;5.40;2.72;;;;;;;30.75;31.85;99366.88;4992487;28;20767;-55
2022/06/01 11:23:57;;;;;;;4.82;3.03;;;;;;;30.58;31.51;99361.88;4992244;28;20264;-55
2022/06/01 11:26:36;;;;;;;3.75;2.90;;;;;;;30.43;31.66;99352.31;4992267;28;20669;-56
2022/06/01 11:29:20;;;;;;;3.67;2.83;;;;;;;30.55;31.54;99350.63;4992471;28;20581;-56
2022/06/01 11:31:52;;;;;;;5.22;3.28;;;;;;;30.69;31.54;99347.88;4992622;28;20193;-56
2022/06/01 11:34:25;;;;;;;4.43;3.83;;;;;;;30.88;31.78;99341.19;4992333;28;20195;-56
2022/06/01 11:36:59;;;;;;;6.20;3.90;;;;;;;31.12;30.67;99343.16;4993031;28;20257;-56
2022/06/01 11:39:30;;;;;;;6.05;4.45;;;;;;;31.42;31.51;99343.63;4992046;28;20190;-56
2022/06/01 11:42:03;;;;;;;3.70;3.03;;;;;;;31.62;31.05;99342.22;4992058;28;20333;-56
2022/06/01 11:44:34;;;;;;;4.10;3.10;;;;;;;31.78;30.37;99340.97;4991998;28;20222;-57
2022/06/01 11:47:04;;;;;;;5.90;3.40;;;;;;;31.87;30.03;99340.31;4992095;28;20194;-56
2022/06/01 11:49:37;;;;;;;4.75;3.15;;;;;;;31.86;29.99;99335.13;4991895;28;20732;-56
2022/06/01 11:52:25;;;;;;;3.35;2.88;;;;;;;31.83;29.45;99336.19;4991924;28;20625;-56
2022/06/01 11:54:56;;;;;;;8.32;3.53;;;;;;;31.80;29.72;99339.09;4991894;28;20198;-56
2022/06/01 11:57:25;;;;;;;5.45;3.10;;;;;;;31.22;30.02;99341.53;4991799;28;20235;-55
2022/06/01 11:59:54;;;;;;;4.72;3.20;;;;;;;31.24;30.13;99340.47;4990410;28;20456;-55
2022/06/01 12:02:43;;;;;;;4.47;3.00;;;;;;;31.61;29.58;99338.72;4991342;28;20617;-56
2022/06/01 12:05:12;;;;;;;5.55;3.00;;;;;;;31.75;29.03;99341.22;4991483;28;20221;-55
2022/06/01 12:07:46;;;;;;;6.72;3.45;;;;;;;31.88;29.88;99333.19;4990993;28;20194;-56
2022/06/01 12:10:29;;;;;;;5.72;3.65;;;;;;;32.01;29.73;99337.53;4990820;28;20253;-56
2022/06/01 12:13:06;;;;;;;5.25;2.90;;;;;;;32.19;28.81;99337.13;4991157;28;20248;-56
2022/06/01 12:15:43;;;;;;;5.05;3.25;;;;;;;32.30;29.06;99329.19;4989573;28;20456;-56